Opa Locka, Florida
Current Conditions -  °F | °C
As of 12:53 PM on Thursday 30 Oct 2014 (Local Time) from KOPF Reporting Station
Broken Clouds Broken Clouds  
Wind Chill: 84°   Ceiling: 4900
Heat Index: 85°   Visibility: 10mi
Dew Point: 62°   Wind: 0mph
Humidity: 47%   Direction: NA
Pressure: 29.94"   Gusts: NA
Location:  25.92°N, 80.28°W
Report Text: KOPF 301653Z 00000KT 10SM BKN049 29/17 A2994 RMK AO2 SLP140 T02890167
Loading
Personal Weather Stations






























Interactive Weather Map
Tropical Storm Tracking
New forecast layout! Learn more

10-Day Weather Forecast

Advertisements
Track Severe Weather on mobile